Archiv-/Tagesdaten

--Timestamp---	Temp	Chill	HIndex	Humid	Dewpt	Wind	HiWind	WindDir	Rain	Barom	        Solar	ET	UV
--------------	----	-----	------	-----	-----	----	------	-------	----	-----	        -----	--	--
20081021 00:05	9.7	9.7	9.7	86	7.4	2	5	180	0.00	1016.766	0	0.000	0
20081021 00:10	9.7	9.7	9.7	86	7.4	2	6	202	0.00	1016.766	0	0.000	0
20081021 00:15	9.6	9.6	9.6	86	7.4	2	8	180	0.00	1016.800	0	0.000	0
20081021 00:20	9.7	9.7	9.7	86	7.4	3	8	202	0.00	1016.800	0	0.000	0
20081021 00:25	9.7	9.7	9.7	86	7.4	2	10	180	0.00	1016.800	0	0.000	0
20081021 00:30	9.6	9.6	9.6	86	7.4	2	10	180	0.00	1016.732	0	0.000	0
20081021 00:35	9.6	9.6	9.6	86	7.3	0	5	157	0.00	1016.698	0	0.000	0
20081021 00:40	9.4	9.4	9.4	86	7.2	2	3	180	0.00	1016.732	0	0.000	0
20081021 00:45	9.4	9.4	9.4	86	7.2	2	6	180	0.00	1016.698	0	0.000	0
20081021 00:50	9.4	9.4	9.4	86	7.2	2	5	180	0.00	1016.631	0	0.000	0
20081021 00:55	9.3	9.3	9.3	86	7.1	2	5	180	0.00	1016.631	0	0.000	0
20081021 01:00	9.3	9.3	9.3	86	7.1	2	6	180	0.00	1016.631	0	0.000	0
20081021 01:05	9.3	9.3	9.3	86	7.1	2	6	180	0.00	1016.664	0	0.000	0
20081021 01:10	9.3	9.3	9.3	86	7.1	3	8	180	0.00	1016.597	0	0.000	0
20081021 01:15	9.3	9.3	9.3	86	7.1	3	10	202	0.00	1016.664	0	0.000	0
20081021 01:20	9.4	9.4	9.4	85	7.0	3	8	180	0.00	1016.631	0	0.000	0
20081021 01:25	9.4	9.4	9.4	85	7.0	2	6	225	0.00	1016.631	0	0.000	0
20081021 01:30	9.3	9.3	9.3	85	6.9	2	8	225	0.00	1016.664	0	0.000	0
20081021 01:35	9.3	9.3	9.3	85	6.9	2	3	180	0.00	1016.664	0	0.000	0
20081021 01:40	9.2	9.2	9.2	85	6.8	2	8	180	0.00	1016.631	0	0.000	0
20081021 01:45	9.1	9.1	9.1	85	6.7	3	8	202	0.00	1016.698	0	0.000	0
20081021 01:50	9.1	9.1	9.1	85	6.7	2	6	180	0.00	1016.664	0	0.000	0
20081021 01:55	9.1	9.1	9.1	85	6.7	0	5	225	0.00	1016.698	0	0.000	0
20081021 02:00	9.0	9.0	9.0	85	6.6	0	5	180	0.00	1016.664	0	0.000	0
20081021 02:05	8.9	8.9	8.9	85	6.6	0	3	180	0.00	1016.461	0	0.000	0
20081021 02:10	8.9	8.9	8.9	86	6.7	2	5	157	0.00	1016.529	0	0.000	0
20081021 02:15	8.9	8.9	8.9	86	6.7	2	6	180	0.00	1016.529	0	0.000	0
20081021 02:20	8.9	8.9	8.9	86	6.7	2	8	180	0.00	1016.529	0	0.000	0
20081021 02:25	8.9	8.9	8.9	85	6.6	0	5	180	0.00	1016.529	0	0.000	0
20081021 02:30	8.9	8.9	8.9	85	6.5	2	6	202	0.00	1016.427	0	0.000	0
20081021 02:35	8.9	8.9	8.9	85	6.5	0	3	180	0.00	1016.394	0	0.000	0
20081021 02:40	8.8	8.8	8.8	85	6.5	2	8	202	0.00	1016.360	0	0.000	0
20081021 02:45	8.8	8.8	8.8	86	6.6	0	5	202	0.00	1016.292	0	0.000	0
20081021 02:50	8.7	8.7	8.7	86	6.5	2	6	180	0.00	1016.326	0	0.000	0
20081021 02:55	8.7	8.7	8.7	86	6.5	2	6	202	0.00	1016.292	0	0.000	0
20081021 03:00	8.7	8.7	8.7	85	6.3	0	5	157	0.00	1016.292	0	0.000	0
20081021 03:05	8.7	8.7	8.7	86	6.5	2	5	157	0.00	1016.394	0	0.000	0
20081021 03:10	8.6	8.6	8.6	86	6.3	2	5	157	0.00	1016.326	0	0.000	0
20081021 03:15	8.5	8.5	8.5	86	6.3	2	5	180	0.00	1016.360	0	0.000	0
20081021 03:20	8.5	8.5	8.5	86	6.3	2	5	157	0.00	1016.156	0	0.000	0
20081021 03:25	8.4	8.4	8.4	86	6.2	2	5	157	0.00	1016.190	0	0.000	0
20081021 03:30	8.5	8.5	8.5	86	6.3	2	5	180	0.00	1016.123	0	0.000	0
20081021 03:35	8.5	8.5	8.5	86	6.3	2	6	180	0.00	1016.123	0	0.000	0
20081021 03:40	8.6	8.6	8.6	85	6.2	2	5	157	0.00	1016.021	0	0.000	0
20081021 03:45	8.6	8.6	8.6	85	6.2	2	5	180	0.00	1015.987	0	0.000	0
20081021 03:50	8.6	8.6	8.6	85	6.2	0	5	180	0.00	1015.886	0	0.000	0
20081021 03:55	8.6	8.6	8.6	85	6.2	0	3	180	0.00	1015.784	0	0.000	0
20081021 04:00	8.6	8.6	8.6	85	6.2	0	2	157	0.00	1015.716	0	0.000	0
20081021 04:05	8.6	8.6	8.6	85	6.2	0	3	157	0.00	1015.818	0	0.000	0
20081021 04:10	8.7	8.7	8.7	85	6.3	0	5	157	0.00	1015.750	0	0.000	0
20081021 04:15	8.7	8.7	8.7	84	6.2	0	5	157	0.00	1015.716	0	0.000	0
20081021 04:20	8.8	8.8	8.8	84	6.2	2	5	157	0.00	1015.750	0	0.000	0
20081021 04:25	8.8	8.8	8.8	84	6.3	0	3	157	0.00	1015.750	0	0.000	0
20081021 04:30	8.8	8.8	8.8	84	6.3	0	3	157	0.00	1015.716	0	0.000	0
20081021 04:35	8.8	8.8	8.8	84	6.3	0	3	157	0.00	1015.716	0	0.000	0
20081021 04:40	8.8	8.8	8.8	84	6.2	2	8	202	0.00	1015.716	0	0.000	0
20081021 04:45	8.7	8.7	8.7	84	6.2	0	3	180	0.00	1015.649	0	0.000	0
20081021 04:50	8.8	8.8	8.8	84	6.2	0	3	180	0.00	1015.581	0	0.000	0
20081021 04:55	8.8	8.8	8.8	84	6.2	2	6	180	0.00	1015.649	0	0.000	0
20081021 05:00	8.7	8.7	8.7	84	6.2	0	5	180	0.00	1015.581	0	0.000	0
20081021 05:05	8.7	8.7	8.7	84	6.1	0	5	180	0.00	1015.852	0	0.000	0
20081021 05:10	8.6	8.6	8.6	84	6.1	2	5	180	0.00	1015.784	0	0.000	0
20081021 05:15	8.6	8.6	8.6	85	6.2	0	5	157	0.00	1015.784	0	0.000	0
20081021 05:20	8.5	8.5	8.5	84	6.0	0	3	157	0.00	1015.750	0	0.000	0
20081021 05:25	8.5	8.5	8.5	84	6.0	2	8	180	0.00	1015.750	0	0.000	0
20081021 05:30	8.4	8.4	8.4	85	6.1	0	5	180	0.00	1015.716	0	0.000	0
20081021 05:35	8.5	8.5	8.5	85	6.1	3	10	202	0.00	1015.682	0	0.000	0
20081021 05:40	8.6	8.6	8.6	85	6.2	0	3	180	0.00	1015.682	0	0.000	0
20081021 05:45	8.6	8.6	8.6	84	6.0	2	5	180	0.00	1015.716	0	0.000	0
20081021 05:50	8.5	8.5	8.5	84	6.0	0	2	180	0.00	1015.750	0	0.000	0
20081021 05:55	8.4	8.4	8.4	84	5.9	0	3	180	0.00	1015.750	0	0.000	0
20081021 06:00	8.3	8.3	8.3	85	6.0	0	2	180	0.00	1015.649	0	0.000	0
20081021 06:05	8.3	8.3	8.3	85	6.0	0	3	157	0.00	1015.886	0	0.000	0
20081021 06:10	8.5	8.5	8.5	85	6.1	2	5	157	0.00	1015.852	0	0.000	0
20081021 06:15	8.7	8.7	8.7	85	6.3	0	3	180	0.00	1015.784	0	0.000	0
20081021 06:20	8.9	8.9	8.9	84	6.3	0	3	157	0.00	1015.852	0	0.000	0
20081021 06:25	9.0	9.0	9.0	83	6.3	0	5	157	0.00	1015.750	0	0.000	0
20081021 06:30	9.0	9.0	9.0	83	6.3	0	2	157	0.00	1015.716	0	0.000	0
20081021 06:35	8.9	8.9	8.9	83	6.2	0	2	157	0.00	1015.615	0	0.000	0
20081021 06:40	8.8	8.8	8.8	84	6.3	0	3	157	0.00	1015.547	0	0.000	0
20081021 06:45	8.7	8.7	8.7	84	6.2	0	3	180	0.00	1015.513	0	0.000	0
20081021 06:50	8.6	8.6	8.6	84	6.1	0	2	180	0.00	1015.479	0	0.000	0
20081021 06:55	8.5	8.5	8.5	85	6.1	0	2	180	0.00	1015.547	0	0.000	0
20081021 07:00	8.4	8.4	8.4	85	6.0	0	3	180	0.00	1015.479	0	0.000	0
20081021 07:05	8.3	8.3	8.3	85	6.0	0	2	180	0.00	1015.716	0	0.000	0
20081021 07:10	8.2	8.2	8.2	86	6.0	0	3	180	0.00	1015.784	0	0.000	0
20081021 07:15	8.2	8.2	8.2	86	6.0	0	3	180	0.00	1015.784	0	0.000	0
20081021 07:20	8.2	8.2	8.2	87	6.1	0	3	180	0.00	1015.750	0	0.000	0
20081021 07:25	8.2	8.2	8.2	87	6.1	2	8	180	0.00	1015.784	0	0.000	0
20081021 07:30	8.3	8.3	8.3	87	6.2	3	10	202	0.00	1015.852	0	0.000	0
20081021 07:35	8.3	8.3	8.3	86	6.1	5	11	202	0.00	1015.852	0	0.000	0
20081021 07:40	8.4	8.4	8.4	86	6.2	2	8	157	0.00	1015.852	0	0.000	0
20081021 07:45	8.7	8.7	8.7	84	6.2	3	8	180	0.00	1015.682	0	0.000	0
20081021 07:50	8.8	8.8	8.8	84	6.2	2	5	157	0.00	1015.581	4	0.000	0
20081021 07:55	8.8	8.8	8.8	84	6.3	2	6	157	0.00	1015.649	7	0.000	0
20081021 08:00	8.9	8.9	8.9	83	6.2	2	8	180	0.00	1015.682	10	0.000	0
20081021 08:05	9.1	9.1	9.1	83	6.3	2	6	180	0.00	1015.784	12	0.000	0
20081021 08:10	9.1	9.1	9.1	83	6.3	3	8	180	0.00	1015.750	12	0.000	0
20081021 08:15	9.1	9.1	9.1	83	6.3	3	8	157	0.00	1015.750	14	0.000	0
20081021 08:20	9.1	9.1	9.1	82	6.2	3	8	157	0.00	1015.784	16	0.000	0
20081021 08:25	9.2	9.2	9.2	82	6.3	2	6	157	0.00	1015.716	18	0.000	0
20081021 08:30	9.3	9.3	9.3	82	6.4	2	6	180	0.00	1015.784	19	0.000	0
20081021 08:35	9.5	9.5	9.5	81	6.4	3	6	180	0.00	1015.818	21	0.000	0
20081021 08:40	9.6	9.6	9.6	81	6.5	2	10	180	0.00	1015.750	21	0.000	0
20081021 08:45	9.7	9.7	9.7	81	6.6	3	10	180	0.00	1015.784	23	0.000	0
20081021 08:50	9.8	9.8	9.8	81	6.7	3	8	180	0.00	1015.682	24	0.000	0
20081021 08:55	10.0	10.0	10.0	80	6.7	3	8	180	0.00	1015.750	26	0.000	0
20081021 09:00	10.2	10.2	10.2	80	6.9	5	14	180	0.00	1015.750	26	0.020	0
20081021 09:05	10.3	10.3	10.3	79	6.8	2	6	180	0.00	1015.682	28	0.000	0
20081021 09:10	10.4	10.4	10.4	79	7.0	3	11	180	0.00	1015.716	29	0.000	0
20081021 09:15	10.6	10.6	10.6	79	7.1	3	10	225	0.00	1015.818	30	0.000	0
20081021 09:20	10.7	10.7	10.7	79	7.2	3	14	225	0.00	1015.919	31	0.000	0
20081021 09:25	10.8	10.8	10.8	78	7.1	3	10	180	0.00	1015.818	32	0.000	0
20081021 09:30	11.0	11.0	11.0	79	7.5	2	6	157	0.00	1015.784	38	0.000	0
20081021 09:35	11.2	11.2	11.2	79	7.7	2	5	157	0.00	1015.818	62	0.000	0
20081021 09:40	11.4	11.4	11.4	78	7.7	2	6	157	0.00	1015.818	61	0.000	0
20081021 09:45	11.6	11.6	11.6	77	7.7	2	6	157	0.00	1015.649	49	0.000	0
20081021 09:50	11.7	11.7	11.7	76	7.6	2	6	180	0.00	1015.716	42	0.000	0
20081021 09:55	11.8	11.8	11.8	76	7.7	2	6	180	0.00	1015.682	38	0.000	0
20081021 10:00	12.0	12.0	12.0	76	7.9	2	5	180	0.00	1015.716	40	0.020	0
20081021 10:05	12.3	12.3	12.3	75	8.0	2	5	157	0.00	1015.649	38	0.000	0
20081021 10:10	12.7	12.7	12.7	75	8.3	2	5	180	0.00	1015.513	40	0.000	0
20081021 10:15	13.1	13.1	13.1	76	8.9	2	6	180	0.00	1015.479	40	0.000	0
20081021 10:20	13.3	13.3	13.3	73	8.6	2	5	180	0.00	1015.445	40	0.000	0
20081021 10:25	13.7	13.7	13.7	72	8.7	2	5	157	0.00	1015.445	42	0.000	0
20081021 10:30	13.9	13.9	13.9	70	8.6	2	5	157	0.00	1015.310	43	0.000	0
20081021 10:35	14.3	14.3	14.3	69	8.7	2	6	157	0.00	1015.276	49	0.000	0
20081021 10:40	14.6	14.6	14.6	68	8.8	2	5	157	0.00	1015.242	61	0.000	1
20081021 10:45	15.0	15.0	15.0	67	8.9	2	6	157	0.00	1015.073	56	0.000	1
20081021 10:50	15.0	15.0	15.0	68	9.1	0	5	157	0.00	1015.039	47	0.000	0
20081021 10:55	15.1	15.1	15.1	67	9.0	0	3	157	0.00	1015.005	49	0.000	0
20081021 11:00	15.3	15.3	15.3	66	9.0	2	5	157	0.00	1014.971	53	0.020	0
20081021 11:05	15.7	15.7	15.7	66	9.3	2	5	157	0.00	1014.937	71	0.000	1
20081021 11:10	15.9	15.9	15.9	66	9.5	2	5	157	0.00	1014.904	75	0.000	1
20081021 11:15	16.1	16.1	16.1	66	9.7	0	3	225	0.00	1014.937	69	0.000	1
20081021 11:20	16.3	16.3	16.3	64	9.5	2	6	202	0.00	1014.904	79	0.000	1
20081021 11:25	16.7	16.7	16.7	64	9.8	2	6	157	0.00	1014.836	93	0.000	1
20081021 11:30	17.0	17.0	17.0	64	10.1	2	5	180	0.00	1014.768	438	0.000	2
20081021 11:35	17.4	17.4	17.4	62	10.0	3	8	157	0.00	1014.768	549	0.000	2
20081021 11:40	17.8	17.8	17.8	61	10.2	3	14	180	0.00	1014.666	438	0.000	2
20081021 11:45	18.1	18.1	18.1	59	10.0	3	11	180	0.00	1014.497	304	0.000	2
20081021 11:50	18.4	18.4	18.4	58	10.0	6	19	180	0.00	1014.599	467	0.000	2
20081021 11:55	18.8	18.8	18.8	56	9.9	6	11	225	0.00	1014.463	535	0.000	2
20081021 12:00	19.3	19.3	19.3	52	9.2	6	23	202	0.00	1014.396	548	0.140	2
20081021 12:05	19.7	19.7	19.7	53	9.8	3	16	225	0.00	1014.429	335	0.000	2
20081021 12:10	19.7	19.7	19.7	51	9.3	6	18	247	0.00	1014.362	206	0.000	2
20081021 12:15	19.8	19.8	19.8	51	9.4	6	18	247	0.00	1014.396	523	0.000	2
20081021 12:20	20.1	20.1	20.1	52	9.9	5	11	270	0.00	1014.260	525	0.000	2
20081021 12:25	20.0	20.0	20.0	50	9.3	6	14	247	0.00	1014.260	253	0.000	2
20081021 12:30	19.9	19.9	19.9	51	9.4	8	16	247	0.00	1014.226	477	0.000	2
20081021 12:35	20.1	20.1	20.1	51	9.6	5	14	247	0.00	1014.159	465	0.000	2
20081021 12:40	20.3	20.3	20.3	50	9.5	3	10	270	0.00	1013.955	446	0.000	2
20081021 12:45	20.4	20.4	20.4	49	9.4	5	16	247	0.00	1013.922	459	0.000	2
20081021 12:50	20.4	20.4	20.4	50	9.7	6	16	270	0.00	1013.854	456	0.000	2
20081021 12:55	20.4	20.4	20.4	50	9.7	10	23	247	0.00	1013.854	472	0.000	2
20081021 13:00	20.3	20.3	20.3	50	9.6	11	23	270	0.00	1013.854	481	0.240	2
20081021 13:05	20.3	20.3	20.3	50	9.6	10	19	270	0.00	1013.854	467	0.000	2
20081021 13:10	20.4	20.4	20.4	50	9.7	10	21	270	0.00	1013.752	464	0.000	2
20081021 13:15	20.7	20.7	20.7	50	9.9	8	18	270	0.00	1013.718	461	0.000	2
20081021 13:20	20.7	20.7	20.7	51	10.2	6	16	247	0.00	1013.583	465	0.000	2
20081021 13:25	20.8	20.8	20.8	48	9.4	10	18	270	0.00	1013.346	475	0.000	2
20081021 13:30	20.9	20.9	20.9	50	10.1	6	16	270	0.00	1013.278	472	0.000	2
20081021 13:35	21.1	21.1	21.1	49	9.9	6	14	270	0.00	1013.278	465	0.000	2
20081021 13:40	21.2	21.2	21.2	47	9.5	5	14	270	0.00	1013.210	460	0.000	2
20081021 13:45	21.3	21.3	21.3	47	9.5	5	10	270	0.00	1013.075	453	0.000	2
20081021 13:50	21.3	21.3	21.3	49	10.1	5	11	270	0.00	1013.143	476	0.000	2
20081021 13:55	21.5	21.5	21.5	48	10.0	5	11	270	0.00	1013.109	508	0.000	2
20081021 14:00	21.7	21.7	21.7	48	10.2	5	16	270	0.00	1013.075	412	0.260	2
20081021 14:05	21.6	21.6	21.6	49	10.4	3	10	270	0.00	1013.075	319	0.000	2
20081021 14:10	21.5	21.5	21.5	48	10.0	5	11	247	0.00	1012.973	524	0.000	2
20081021 14:15	21.4	21.4	21.4	48	10.0	6	18	247	0.00	1012.939	267	0.000	2
20081021 14:20	21.5	21.5	21.5	47	9.7	5	13	247	0.00	1012.838	492	0.000	2
20081021 14:25	21.3	21.3	21.3	46	9.2	5	11	270	0.00	1012.838	207	0.000	2
20081021 14:30	20.8	20.8	20.8	48	9.4	3	10	247	0.00	1012.770	148	0.000	1
20081021 14:35	20.6	20.6	20.6	49	9.5	5	11	270	0.00	1012.838	156	0.000	1
20081021 14:40	20.4	20.4	20.4	50	9.7	3	10	247	0.00	1012.838	147	0.000	1
20081021 14:45	20.3	20.3	20.3	51	9.9	3	10	270	0.00	1012.804	124	0.000	1
20081021 14:50	20.2	20.2	20.2	50	9.4	3	6	247	0.00	1012.770	105	0.000	1
20081021 14:55	19.9	19.9	19.9	52	9.8	5	8	247	0.00	1012.804	81	0.000	1
20081021 15:00	19.8	19.8	19.8	53	10.0	3	8	247	0.00	1012.770	89	0.140	1
20081021 15:05	19.7	19.7	19.7	53	9.9	2	6	270	0.00	1012.736	111	0.000	1
20081021 15:10	19.7	19.7	19.7	54	10.1	2	5	225	0.00	1012.736	148	0.000	1
20081021 15:15	19.7	19.7	19.7	53	9.9	0	3	225	0.00	1012.567	163	0.000	1
20081021 15:20	19.8	19.8	19.8	52	9.6	2	6	225	0.00	1012.567	144	0.000	1
20081021 15:25	19.8	19.8	19.8	52	9.6	2	6	247	0.00	1012.465	102	0.000	1
20081021 15:30	19.8	19.8	19.8	53	9.9	0	3	247	0.00	1012.499	92	0.000	1
20081021 15:35	19.7	19.7	19.7	55	10.4	0	2	247	0.00	1012.431	104	0.000	1
20081021 15:40	19.7	19.7	19.7	55	10.4	0	3	247	0.00	1012.465	117	0.000	1
20081021 15:45	19.8	19.8	19.8	55	10.5	0	3	247	0.00	1012.465	149	0.000	1
20081021 15:50	19.9	19.9	19.9	53	10.0	2	6	247	0.00	1012.364	99	0.000	1
20081021 15:55	20.0	20.0	20.0	52	9.8	2	5	292	0.00	1012.296	91	0.000	1
20081021 16:00	20.1	20.1	20.1	51	9.7	2	5	247	0.00	1012.296	78	0.060	1
20081021 16:05	20.1	20.1	20.1	48	8.7	3	8	247	0.00	1012.161	84	0.000	1
20081021 16:10	20.2	20.2	20.2	48	8.8	2	6	225	0.00	1012.194	68	0.000	1
20081021 16:15	20.3	20.3	20.3	49	9.2	2	5	247	0.00	1012.262	73	0.000	1
20081021 16:20	20.3	20.3	20.3	48	8.9	0	3	247	0.00	1012.262	68	0.000	1
20081021 16:25	20.2	20.2	20.2	48	8.9	2	5	247	0.00	1012.127	49	0.000	0
20081021 16:30	20.2	20.2	20.2	51	9.7	2	8	225	0.00	1012.025	48	0.000	0
20081021 16:35	20.0	20.0	20.0	54	10.4	2	6	157	0.00	1012.025	51	0.000	0
20081021 16:40	19.8	19.8	19.8	55	10.5	2	6	135	0.00	1011.924	41	0.000	0
20081021 16:45	19.6	19.6	19.6	56	10.5	2	5	157	0.00	1012.059	33	0.000	0
20081021 16:50	19.4	19.4	19.4	57	10.6	0	3	157	0.00	1012.127	33	0.000	0
20081021 16:55	19.3	19.3	19.3	58	10.8	0	3	157	0.00	1012.127	33	0.000	0
20081021 17:00	19.2	19.2	19.2	58	10.7	0	2	157	0.00	1012.059	33	0.040	0
20081021 17:05	19.1	19.1	19.1	58	10.6	0	3	157	0.00	1012.161	26	0.000	0
20081021 17:10	18.9	18.9	18.9	59	10.7	0	2	157	0.00	1012.127	27	0.000	0
20081021 17:15	18.8	18.8	18.8	60	10.8	0	2	157	0.00	1012.059	29	0.000	0
20081021 17:20	18.7	18.7	18.7	61	11.0	0	2	157	0.00	1012.025	26	0.000	0
20081021 17:25	18.4	18.4	18.4	61	10.8	0	2	157	0.00	1011.957	22	0.000	0
20081021 17:30	18.3	18.3	18.3	62	10.9	0	2	157	0.00	1011.991	15	0.000	0
20081021 17:35	18.1	18.1	18.1	62	10.7	0	2	157	0.00	1012.025	14	0.000	0
20081021 17:40	17.8	17.8	17.8	62	10.4	0	2	157	0.00	1012.161	13	0.000	0
20081021 17:45	17.7	17.7	17.7	62	10.3	0	0	157	0.00	1012.059	12	0.000	0
20081021 17:50	17.4	17.4	17.4	63	10.3	0	2	157	0.00	1012.025	12	0.000	0
20081021 17:55	17.3	17.3	17.3	63	10.2	0	2	157	0.00	1012.059	9	0.000	0
20081021 18:00	17.1	17.1	17.1	64	10.2	0	0	157	0.00	1012.059	8	0.020	0
20081021 18:05	16.8	16.8	16.8	65	10.2	0	0	157	0.00	1012.194	5	0.000	0
20081021 18:10	16.7	16.7	16.7	66	10.3	0	0	157	0.00	1012.194	0	0.000	0
20081021 18:15	16.4	16.4	16.4	66	10.1	0	0	157	0.00	1012.228	0	0.000	0
20081021 18:20	16.3	16.3	16.3	68	10.4	0	0	157	0.00	1012.161	0	0.000	0
20081021 18:25	16.1	16.1	16.1	68	10.1	0	0	157	0.00	1012.228	0	0.000	0
20081021 18:30	15.8	15.8	15.8	69	10.2	0	0	157	0.00	1012.194	0	0.000	0
20081021 18:35	15.6	15.6	15.6	70	10.2	0	0	157	0.00	1012.398	0	0.000	0
20081021 18:40	15.4	15.4	15.4	70	10.0	0	0	157	0.00	1012.398	0	0.000	0
20081021 18:45	15.3	15.3	15.3	71	10.0	0	0	157	0.00	1012.431	0	0.000	0
20081021 18:50	15.1	15.1	15.1	71	9.9	0	0	157	0.00	1012.398	0	0.000	0
20081021 18:55	15.0	15.0	15.0	72	10.0	0	0	157	0.00	1012.533	0	0.000	0
20081021 19:00	15.0	15.0	15.0	73	10.2	0	0	157	0.00	1012.533	0	0.000	0
20081021 19:05	15.0	15.0	15.0	73	10.2	0	0	157	0.00	1012.601	0	0.000	0
20081021 19:10	15.0	15.0	15.0	73	10.2	0	0	157	0.00	1012.601	0	0.000	0
20081021 19:15	15.0	15.0	15.0	73	10.2	0	2	157	0.00	1012.669	0	0.000	0
20081021 19:20	15.0	15.0	15.0	73	10.2	0	2	157	0.00	1012.669	0	0.000	0
20081021 19:25	15.0	15.0	15.0	73	10.2	0	3	157	0.00	1012.669	0	0.000	0
20081021 19:30	15.0	15.0	15.0	73	10.2	0	0	157	0.00	1012.635	0	0.000	0
20081021 19:35	14.8	14.8	14.8	74	10.2	0	0	157	0.00	1012.770	0	0.000	0
20081021 19:40	14.5	14.5	14.5	74	9.9	0	0	157	0.00	1012.770	0	0.000	0
20081021 19:45	14.2	14.2	14.2	75	9.9	0	0	157	0.00	1012.804	0	0.000	0
20081021 19:50	14.0	14.0	14.0	76	9.8	0	0	157	0.00	1012.973	0	0.000	0
20081021 19:55	13.9	13.9	13.9	76	9.7	0	2	157	0.00	1012.973	0	0.000	0
20081021 20:00	13.8	13.8	13.8	77	9.9	0	2	157	0.00	1012.872	0	0.020	0
20081021 20:05	13.8	13.8	13.8	77	9.8	0	2	157	0.00	1012.804	0	0.000	0
20081021 20:10	13.7	13.7	13.7	77	9.8	0	2	157	0.00	1012.906	0	0.000	0
20081021 20:15	13.6	13.6	13.6	78	9.8	0	2	157	0.00	1012.939	0	0.000	0
20081021 20:20	13.6	13.6	13.6	78	9.8	0	2	157	0.00	1012.939	0	0.000	0
20081021 20:25	13.6	13.6	13.6	78	9.8	0	0	157	0.00	1013.007	0	0.000	0
20081021 20:30	13.4	13.4	13.4	78	9.6	0	5	270	0.00	1012.973	0	0.000	0
20081021 20:35	13.3	13.3	13.3	79	9.7	0	2	180	0.00	1012.939	0	0.000	0
20081021 20:40	13.1	13.1	13.1	79	9.5	2	5	180	0.00	1012.973	0	0.000	0
20081021 20:45	13.1	13.1	13.1	79	9.5	0	3	180	0.00	1012.939	0	0.000	0
20081021 20:50	13.1	13.1	13.1	79	9.5	0	3	180	0.00	1012.906	0	0.000	0
20081021 20:55	13.0	13.0	13.0	79	9.4	3	6	315	0.00	1013.177	0	0.000	0
20081021 21:00	12.9	12.9	12.9	79	9.4	2	6	180	0.00	1013.075	0	0.020	0
20081021 21:05	13.1	13.1	13.1	79	9.5	0	5	180	0.00	1012.770	0	0.000	0
20081021 21:10	13.1	13.1	13.1	78	9.3	3	10	315	0.00	1012.872	0	0.000	0
20081021 21:15	12.9	12.9	12.9	79	9.3	0	5	202	0.00	1013.041	0	0.000	0
20081021 21:20	12.7	12.7	12.7	79	9.2	0	3	202	0.00	1013.075	0	0.000	0
20081021 21:25	12.6	12.6	12.6	80	9.2	0	2	202	0.00	1013.041	0	0.000	0
20081021 21:30	12.4	12.4	12.4	81	9.2	0	3	202	0.00	1013.109	0	0.000	0
20081021 21:35	12.3	12.3	12.3	81	9.2	0	5	292	0.00	1013.109	0	0.000	0
20081021 21:40	12.3	12.3	12.3	81	9.1	0	2	292	0.00	1013.244	0	0.000	0
20081021 21:45	12.2	12.2	12.2	81	9.1	0	2	292	0.00	1013.312	0	0.000	0
20081021 21:50	12.1	12.1	12.1	82	9.1	0	2	292	0.00	1013.380	0	0.000	0
20081021 21:55	11.9	11.9	11.9	82	9.0	0	2	225	0.00	1013.380	0	0.000	0
20081021 22:00	11.8	11.8	11.8	82	8.9	0	0	225	0.00	1013.481	0	0.020	0
20081021 22:05	11.7	11.7	11.7	82	8.8	0	0	225	0.00	1013.143	0	0.000	0
20081021 22:10	11.6	11.6	11.6	82	8.6	0	0	225	0.00	1013.177	0	0.000	0
20081021 22:15	11.4	11.4	11.4	83	8.6	0	0	225	0.00	1013.278	0	0.000	0
20081021 22:20	11.2	11.2	11.2	84	8.6	2	6	202	0.00	1013.414	0	0.000	0
20081021 22:25	11.1	11.1	11.1	84	8.5	2	6	202	0.00	1013.414	0	0.000	0
20081021 22:30	11.1	11.1	11.1	84	8.5	3	8	202	0.00	1013.447	0	0.000	0
20081021 22:35	11.2	11.2	11.2	84	8.6	2	5	202	0.00	1013.447	0	0.000	0
20081021 22:40	11.2	11.2	11.2	84	8.6	2	5	202	0.00	1013.414	0	0.000	0
20081021 22:45	11.2	11.2	11.2	84	8.6	2	6	202	0.00	1013.447	0	0.000	0
20081021 22:50	11.3	11.3	11.3	84	8.7	0	5	180	0.00	1013.447	0	0.000	0
20081021 22:55	11.3	11.3	11.3	83	8.5	2	6	180	0.00	1013.515	0	0.000	0
20081021 23:00	11.3	11.3	11.3	83	8.5	2	6	180	0.00	1013.583	0	0.020	0
20081021 23:05	11.3	11.3	11.3	84	8.7	2	3	180	0.00	1013.210	0	0.000	0
20081021 23:10	11.3	11.3	11.3	84	8.7	2	5	180	0.00	1013.143	0	0.000	0
20081021 23:15	11.2	11.2	11.2	83	8.4	3	6	180	0.00	1013.244	0	0.000	0
20081021 23:20	11.2	11.2	11.2	84	8.6	0	3	202	0.00	1013.210	0	0.000	0
20081021 23:25	11.2	11.2	11.2	84	8.6	0	2	202	0.00	1013.346	0	0.000	0
20081021 23:30	11.2	11.2	11.2	84	8.6	0	3	202	0.00	1013.312	0	0.000	0
20081021 23:35	11.2	11.2	11.2	83	8.4	0	2	202	0.00	1013.244	0	0.000	0
20081021 23:40	11.1	11.1	11.1	84	8.5	0	3	202	0.00	1013.414	0	0.000	0
20081021 23:45	11.2	11.2	11.2	84	8.6	2	3	202	0.00	1013.346	0	0.000	0
20081021 23:50	11.2	11.2	11.2	84	8.6	0	3	202	0.00	1013.346	0	0.000	0
20081021 23:55	11.2	11.2	11.2	83	8.4	0	3	202	0.00	1013.312	0	0.000	0
20081021 24:00	11.1	11.1	11.1	83	8.3	0	5	202	0.00	1013.244	0	0.000	0



Please note the license to use and transfer of this data:
http://creativecommons.org/licenses/by-nc-sa/3.0/deed.en

Bitte beachten sie die Lizenz zur Verwertung und Weitergabe der Daten:
http://creativecommons.org/licenses/by-nc-sa/3.0/deed.de

zurück zur Übersicht der Archivdaten (Monats und Tagesdaten)

Cookies helfen bei der Bereitstellung von Inhalten. Durch die Nutzung dieser Seiten erklärst du dich damit einverstanden, dass Cookies auf deinem Rechner gespeichert werden. Weitere Information